Wetterdaten: Sonntag, 23.05.2010
Datum Zeit Temp. A. Feuchte A. Luftdruck Regen Wind Richtung Richtung Sonnenschein UV Solar Windben
23.05.2010 00:00 15,2 C 81 % 1022,7 hPa 0,0 mm 0,0 km/h (0 Bft) N 360 0 min 0 UV-I 0 W/m 3,2 km/h (1 Bft)
23.05.2010 00:10 15,0 C 82 % 1022,8 hPa 0,0 mm 0,0 km/h (0 Bft) N 360 0 min 0 UV-I 0 W/m 1,6 km/h (1 Bft)
23.05.2010 00:20 14,8 C 82 % 1022,8 hPa 0,0 mm 0,0 km/h (0 Bft) N 360 0 min 0 UV-I 0 W/m 1,6 km/h (1 Bft)
23.05.2010 00:30 14,6 C 84 % 1022,8 hPa 0,0 mm 0,0 km/h (0 Bft) N 0 0 min 0 UV-I 0 W/m 0,0 km/h (0 Bft)
23.05.2010 00:40 14,2 C 84 % 1022,7 hPa 0,0 mm 0,0 km/h (0 Bft) N 0 0 min 0 UV-I 0 W/m 0,0 km/h (0 Bft)
23.05.2010 00:50 13,9 C 85 % 1022,8 hPa 0,0 mm 0,0 km/h (0 Bft) N 0 0 min 0 UV-I 0 W/m 0,0 km/h (0 Bft)
23.05.2010 01:00 13,7 C 85 % 1022,9 hPa 0,0 mm 0,0 km/h (0 Bft) N 360 0 min 0 UV-I 0 W/m 1,6 km/h (1 Bft)
23.05.2010 01:10 13,4 C 86 % 1022,8 hPa 0,0 mm 0,0 km/h (0 Bft) N 0 0 min 0 UV-I 0 W/m 0,0 km/h (0 Bft)
23.05.2010 01:20 13,1 C 87 % 1022,6 hPa 0,0 mm 0,0 km/h (0 Bft) N 0 0 min 0 UV-I 0 W/m 0,0 km/h (0 Bft)
23.05.2010 01:30 12,9 C 88 % 1022,6 hPa 0,0 mm 0,0 km/h (0 Bft) N 0 0 min 0 UV-I 0 W/m 0,0 km/h (0 Bft)
23.05.2010 01:40 12,7 C 88 % 1022,6 hPa 0,0 mm 0,0 km/h (0 Bft) N 0 0 min 0 UV-I 0 W/m 0,0 km/h (0 Bft)
23.05.2010 01:50 12,4 C 88 % 1022,6 hPa 0,0 mm 0,0 km/h (0 Bft) N 0 0 min 0 UV-I 0 W/m 0,0 km/h (0 Bft)
23.05.2010 02:00 12,3 C 89 % 1022,6 hPa 0,0 mm 0,0 km/h (0 Bft) N 0 0 min 0 UV-I 0 W/m 0,0 km/h (0 Bft)
23.05.2010 02:10 12,2 C 89 % 1022,5 hPa 0,0 mm 0,0 km/h (0 Bft) N 0 0 min 0 UV-I 0 W/m 0,0 km/h (0 Bft)
23.05.2010 02:20 12,0 C 89 % 1022,5 hPa 0,0 mm 0,0 km/h (0 Bft) N 0 0 min 0 UV-I 0 W/m 0,0 km/h (0 Bft)
23.05.2010 02:30 11,8 C 90 % 1022,4 hPa 0,0 mm 0,0 km/h (0 Bft) N 0 0 min 0 UV-I 0 W/m 0,0 km/h (0 Bft)
23.05.2010 02:40 11,7 C 90 % 1022,5 hPa 0,0 mm 0,0 km/h (0 Bft) N 0 0 min 0 UV-I 0 W/m 0,0 km/h (0 Bft)
23.05.2010 02:50 11,7 C 90 % 1022,6 hPa 0,0 mm 0,0 km/h (0 Bft) N 360 0 min 0 UV-I 0 W/m 1,6 km/h (1 Bft)
23.05.2010 03:00 11,6 C 90 % 1022,5 hPa 0,0 mm 0,0 km/h (0 Bft) N 360 0 min 0 UV-I 0 W/m 1,6 km/h (1 Bft)
23.05.2010 03:10 11,4 C 90 % 1022,4 hPa 0,0 mm 0,0 km/h (0 Bft) N 360 0 min 0 UV-I 0 W/m 1,6 km/h (1 Bft)
23.05.2010 03:20 11,3 C 90 % 1022,5 hPa 0,0 mm 0,0 km/h (0 Bft) N 360 0 min 0 UV-I 0 W/m 1,6 km/h (1 Bft)
23.05.2010 03:30 11,1 C 90 % 1022,4 hPa 0,0 mm 0,0 km/h (0 Bft) N 0 0 min 0 UV-I 0 W/m 0,0 km/h (0 Bft)
23.05.2010 03:40 10,9 C 90 % 1022,4 hPa 0,0 mm 0,0 km/h (0 Bft) N 0 0 min 0 UV-I 0 W/m 0,0 km/h (0 Bft)
23.05.2010 03:50 10,7 C 91 % 1022,4 hPa 0,0 mm 0,0 km/h (0 Bft) N 360 0 min 0 UV-I 0 W/m 1,6 km/h (1 Bft)
23.05.2010 04:00 10,8 C 91 % 1022,4 hPa 0,0 mm 0,0 km/h (0 Bft) N 360 0 min 0 UV-I 0 W/m 1,6 km/h (1 Bft)
23.05.2010 04:10 10,6 C 91 % 1022,4 hPa 0,0 mm 0,0 km/h (0 Bft) N 0 0 min 0 UV-I 0 W/m 0,0 km/h (0 Bft)
23.05.2010 04:20 10,5 C 91 % 1022,5 hPa 0,0 mm 0,0 km/h (0 Bft) N 0 0 min 0 UV-I 0 W/m 0,0 km/h (0 Bft)
23.05.2010 04:30 10,5 C 91 % 1022,5 hPa 0,0 mm 0,0 km/h (0 Bft) N 360 0 min 0 UV-I 0 W/m 1,6 km/h (1 Bft)
23.05.2010 04:40 10,4 C 91 % 1022,4 hPa 0,0 mm 0,0 km/h (0 Bft) N 0 0 min 0 UV-I 0 W/m 0,0 km/h (0 Bft)
23.05.2010 04:50 10,1 C 91 % 1022,5 hPa 0,0 mm 0,0 km/h (0 Bft) N 0 0 min 0 UV-I 0 W/m 0,0 km/h (0 Bft)
23.05.2010 05:00 10,1 C 91 % 1022,5 hPa 0,0 mm 0,0 km/h (0 Bft) N 360 0 min 0 UV-I 0 W/m 1,6 km/h (1 Bft)
23.05.2010 05:10 9,7 C 91 % 1022,5 hPa 0,0 mm 0,0 km/h (0 Bft) N 0 0 min 0 UV-I 0 W/m 0,0 km/h (0 Bft)
23.05.2010 05:20 9,6 C 91 % 1022,5 hPa 0,0 mm 0,0 km/h (0 Bft) N 0 0 min 0 UV-I 0 W/m 0,0 km/h (0 Bft)
23.05.2010 05:30 9,6 C 91 % 1022,5 hPa 0,0 mm 0,0 km/h (0 Bft) N 0 0 min 0 UV-I 0 W/m 0,0 km/h (0 Bft)
23.05.2010 05:40 9,7 C 92 % 1022,4 hPa 0,0 mm 0,0 km/h (0 Bft) N 0 0 min 0 UV-I 7 W/m 0,0 km/h (0 Bft)
23.05.2010 05:50 9,7 C 92 % 1022,5 hPa 0,0 mm 0,0 km/h (0 Bft) N 360 0 min 0 UV-I 12 W/m 1,6 km/h (1 Bft)
23.05.2010 06:00 9,7 C 92 % 1022,6 hPa 0,0 mm 0,0 km/h (0 Bft) N 360 0 min 0 UV-I 19 W/m 1,6 km/h (1 Bft)
23.05.2010 06:10 9,7 C 92 % 1022,6 hPa 0,0 mm 0,0 km/h (0 Bft) N 0 0 min 0 UV-I 28 W/m 0,0 km/h (0 Bft)
23.05.2010 06:20 9,8 C 92 % 1022,5 hPa 0,0 mm 0,0 km/h (0 Bft) W-SW 247 0 min 0 UV-I 35 W/m 6,4 km/h (2 Bft)
23.05.2010 06:30 9,9 C 92 % 1022,5 hPa 0,0 mm 0,0 km/h (0 Bft) W 270 0 min 0 UV-I 37 W/m 3,2 km/h (1 Bft)
23.05.2010 06:40 10,0 C 92 % 1022,4 hPa 0,0 mm 1,6 km/h (1 Bft) W 270 0 min 0 UV-I 39 W/m 4,8 km/h (1 Bft)
23.05.2010 06:50 10,1 C 92 % 1022,4 hPa 0,0 mm 0,0 km/h (0 Bft) W 270 0 min 0 UV-I 42 W/m 4,8 km/h (1 Bft)
23.05.2010 07:00 9,9 C 92 % 1022,4 hPa 0,0 mm 0,0 km/h (0 Bft) W-SW 247 0 min 0 UV-I 54 W/m 4,8 km/h (1 Bft)
23.05.2010 07:10 9,9 C 93 % 1022,5 hPa 0,0 mm 0,0 km/h (0 Bft) W-SW 247 0 min 0 UV-I 54 W/m 3,2 km/h (1 Bft)
23.05.2010 07:20 10,1 C 93 % 1022,6 hPa 0,0 mm 0,0 km/h (0 Bft) W-NW 292 0 min 0 UV-I 58 W/m 4,8 km/h (1 Bft)
23.05.2010 07:30 10,0 C 93 % 1022,7 hPa 0,0 mm 1,6 km/h (1 Bft) W-NW 292 0 min 0 UV-I 63 W/m 6,4 km/h (2 Bft)
23.05.2010 07:40 10,0 C 93 % 1022,7 hPa 0,0 mm 1,6 km/h (1 Bft) W 270 0 min 0 UV-I 63 W/m 6,4 km/h (2 Bft)
23.05.2010 07:50 9,9 C 93 % 1022,7 hPa 0,0 mm 1,6 km/h (1 Bft) W 270 0 min 0 UV-I 70 W/m 4,8 km/h (1 Bft)
23.05.2010 08:00 9,8 C 93 % 1022,8 hPa 0,0 mm 0,6 km/h (0 Bft) W 277 0 min 0 UV-I 70 W/m 3,2 km/h (1 Bft)
23.05.2010 08:10 9,8 C 93 % 1022,9 hPa 0,0 mm 1,6 km/h (1 Bft) W-NW 292 0 min 0 UV-I 67 W/m 8,0 km/h (2 Bft)
23.05.2010 08:20 9,7 C 93 % 1023,0 hPa 0,0 mm 3,2 km/h (1 Bft) W-SW 247 0 min 1 UV-I 67 W/m 9,7 km/h (2 Bft)
23.05.2010 08:30 9,7 C 93 % 1023,0 hPa 0,0 mm 3,2 km/h (1 Bft) W 270 0 min 1 UV-I 67 W/m 8,0 km/h (2 Bft)
23.05.2010 08:40 9,7 C 93 % 1023,0 hPa 0,0 mm 1,6 km/h (1 Bft) W 270 0 min 1 UV-I 84 W/m 8,0 km/h (2 Bft)
23.05.2010 08:50 9,7 C 93 % 1023,0 hPa 0,0 mm 1,6 km/h (1 Bft) W 270 0 min 1 UV-I 84 W/m 8,0 km/h (2 Bft)
23.05.2010 09:00 9,5 C 93 % 1023,0 hPa 0,0 mm 1,6 km/h (1 Bft) W 270 0 min 1 UV-I 121 W/m 9,7 km/h (2 Bft)
23.05.2010 09:10 9,4 C 94 % 1023,0 hPa 0,0 mm 1,6 km/h (1 Bft) W 270 0 min 1 UV-I 125 W/m 6,4 km/h (2 Bft)
23.05.2010 09:20 9,4 C 94 % 1023,0 hPa 0,0 mm 1,6 km/h (1 Bft) NW 315 0 min 1 UV-I 123 W/m 6,4 km/h (2 Bft)
23.05.2010 09:30 9,5 C 94 % 1023,0 hPa 0,0 mm 1,6 km/h (1 Bft) W-NW 292 0 min 1 UV-I 121 W/m 4,8 km/h (1 Bft)
23.05.2010 09:40 9,6 C 93 % 1023,1 hPa 0,0 mm 1,6 km/h (1 Bft) NW 315 0 min 1 UV-I 107 W/m 6,4 km/h (2 Bft)
23.05.2010 09:50 9,6 C 93 % 1023,3 hPa 0,0 mm 1,6 km/h (1 Bft) W-NW 292 0 min 1 UV-I 104 W/m 8,0 km/h (2 Bft)
23.05.2010 10:00 9,6 C 93 % 1023,2 hPa 0,0 mm 1,6 km/h (1 Bft) W 270 0 min 1 UV-I 141 W/m 6,4 km/h (2 Bft)
23.05.2010 10:10 9,8 C 93 % 1023,2 hPa 0,0 mm 1,6 km/h (1 Bft) W 270 0 min 1 UV-I 162 W/m 9,7 km/h (2 Bft)
23.05.2010 10:20 9,9 C 93 % 1023,2 hPa 0,0 mm 1,6 km/h (1 Bft) W-NW 292 0 min 2 UV-I 202 W/m 4,8 km/h (1 Bft)
23.05.2010 10:30 10,2 C 92 % 1023,2 hPa 0,0 mm 1,6 km/h (1 Bft) W 270 0 min 2 UV-I 221 W/m 8,0 km/h (2 Bft)
23.05.2010 10:40 10,6 C 91 % 1023,2 hPa 0,0 mm 0,0 km/h (0 Bft) SW 225 0 min 2 UV-I 225 W/m 4,8 km/h (1 Bft)
23.05.2010 10:50 10,8 C 91 % 1023,1 hPa 0,0 mm 1,6 km/h (1 Bft) W-NW 292 0 min 2 UV-I 234 W/m 8,0 km/h (2 Bft)
23.05.2010 11:00 10,9 C 90 % 1023,1 hPa 0,0 mm 3,2 km/h (1 Bft) W 270 0 min 2 UV-I 279 W/m 8,0 km/h (2 Bft)
23.05.2010 11:10 11,1 C 89 % 1023,1 hPa 0,0 mm 1,6 km/h (1 Bft) W 270 0 min 3 UV-I 283 W/m 8,0 km/h (2 Bft)
23.05.2010 11:20 11,4 C 88 % 1023,0 hPa 0,0 mm 1,6 km/h (1 Bft) SW 225 0 min 3 UV-I 278 W/m 6,4 km/h (2 Bft)
23.05.2010 11:30 11,7 C 87 % 1023,0 hPa 0,0 mm 0,0 km/h (0 Bft) SW 225 0 min 3 UV-I 279 W/m 6,4 km/h (2 Bft)
23.05.2010 11:40 11,8 C 87 % 1023,0 hPa 0,0 mm 1,6 km/h (1 Bft) W 270 0 min 3 UV-I 329 W/m 6,4 km/h (2 Bft)
23.05.2010 11:50 12,2 C 85 % 1023,0 hPa 0,0 mm 0,0 km/h (0 Bft) W 270 10 min 5 UV-I 636 W/m 4,8 km/h (1 Bft)
23.05.2010 12:00 12,7 C 84 % 1023,0 hPa 0,0 mm 0,0 km/h (0 Bft) SW 225 10 min 5 UV-I 584 W/m 4,8 km/h (1 Bft)
23.05.2010 12:10 13,2 C 83 % 1022,9 hPa 0,0 mm 1,6 km/h (1 Bft) SW 225 10 min 8 UV-I 719 W/m 8,0 km/h (2 Bft)
23.05.2010 12:20 13,9 C 82 % 1022,8 hPa 0,0 mm 1,6 km/h (1 Bft) SW 225 10 min 8 UV-I 960 W/m 6,4 km/h (2 Bft)
23.05.2010 12:30 14,7 C 81 % 1022,6 hPa 0,0 mm 1,6 km/h (1 Bft) SW 225 10 min 8 UV-I 1056 W/m 6,4 km/h (2 Bft)
23.05.2010 12:40 15,2 C 78 % 1022,5 hPa 0,0 mm 1,6 km/h (1 Bft) S 180 10 min 8 UV-I 1014 W/m 4,8 km/h (1 Bft)
23.05.2010 12:50 15,3 C 77 % 1022,5 hPa 0,0 mm 1,6 km/h (1 Bft) SW 225 10 min 8 UV-I 937 W/m 11,3 km/h (2 Bft)
23.05.2010 13:00 15,3 C 77 % 1022,4 hPa 0,0 mm 1,6 km/h (1 Bft) W 270 10 min 8 UV-I 962 W/m 8,0 km/h (2 Bft)
23.05.2010 13:10 15,7 C 76 % 1022,4 hPa 0,0 mm 1,6 km/h (1 Bft) SW 225 10 min 8 UV-I 976 W/m 8,0 km/h (2 Bft)
23.05.2010 13:20 16,4 C 75 % 1022,2 hPa 0,0 mm 1,6 km/h (1 Bft) SW 225 10 min 8 UV-I 925 W/m 8,0 km/h (2 Bft)
23.05.2010 13:30 16,8 C 76 % 1022,1 hPa 0,0 mm 3,2 km/h (1 Bft) W 270 10 min 8 UV-I 928 W/m 11,3 km/h (2 Bft)
23.05.2010 13:40 16,9 C 75 % 1022,0 hPa 0,0 mm 1,6 km/h (1 Bft) W 270 10 min 8 UV-I 912 W/m 11,3 km/h (2 Bft)
23.05.2010 13:50 17,4 C 71 % 1021,9 hPa 0,0 mm 1,6 km/h (1 Bft) W-NW 292 10 min 8 UV-I 930 W/m 9,7 km/h (2 Bft)
23.05.2010 14:00 18,2 C 71 % 1021,6 hPa 0,0 mm 1,6 km/h (1 Bft) S-SW 202 10 min 8 UV-I 932 W/m 8,0 km/h (2 Bft)
23.05.2010 14:10 19,0 C 70 % 1021,5 hPa 0,0 mm 3,2 km/h (1 Bft) W 270 10 min 7 UV-I 979 W/m 17,7 km/h (3 Bft)
23.05.2010 14:20 19,3 C 68 % 1021,4 hPa 0,0 mm 3,2 km/h (1 Bft) W 270 10 min 7 UV-I 946 W/m 11,3 km/h (2 Bft)
23.05.2010 14:30 19,2 C 70 % 1021,4 hPa 0,0 mm 3,2 km/h (1 Bft) W 270 10 min 7 UV-I 900 W/m 11,3 km/h (2 Bft)
23.05.2010 14:40 19,8 C 68 % 1021,2 hPa 0,0 mm 3,2 km/h (1 Bft) S-SW 202 10 min 7 UV-I 884 W/m 11,3 km/h (2 Bft)
23.05.2010 14:50 19,8 C 69 % 1021,0 hPa 0,0 mm 3,2 km/h (1 Bft) W 270 10 min 7 UV-I 879 W/m 9,7 km/h (2 Bft)
23.05.2010 15:00 20,1 C 70 % 1020,8 hPa 0,0 mm 3,2 km/h (1 Bft) W 270 10 min 7 UV-I 856 W/m 8,0 km/h (2 Bft)
23.05.2010 15:10 20,7 C 67 % 1020,8 hPa 0,0 mm 1,6 km/h (1 Bft) W 270 10 min 6 UV-I 898 W/m 8,0 km/h (2 Bft)
23.05.2010 15:20 20,7 C 66 % 1020,6 hPa 0,0 mm 3,2 km/h (1 Bft) W-NW 292 10 min 6 UV-I 875 W/m 11,3 km/h (2 Bft)
23.05.2010 15:30 21,4 C 64 % 1020,5 hPa 0,0 mm 3,2 km/h (1 Bft) W-SW 247 10 min 6 UV-I 877 W/m 14,5 km/h (3 Bft)
23.05.2010 15:40 21,3 C 66 % 1020,5 hPa 0,0 mm 1,6 km/h (1 Bft) W 270 10 min 5 UV-I 898 W/m 8,0 km/h (2 Bft)
23.05.2010 15:50 21,5 C 64 % 1020,3 hPa 0,0 mm 3,2 km/h (1 Bft) W-NW 292 10 min 5 UV-I 849 W/m 9,7 km/h (2 Bft)
23.05.2010 16:00 21,5 C 64 % 1020,2 hPa 0,0 mm 4,1 km/h (1 Bft) W 265 10 min 5 UV-I 784 W/m 9,7 km/h (2 Bft)
23.05.2010 16:10 21,8 C 63 % 1020,1 hPa 0,0 mm 3,2 km/h (1 Bft) W 270 10 min 5 UV-I 786 W/m 11,3 km/h (2 Bft)
23.05.2010 16:20 21,8 C 64 % 1020,0 hPa 0,0 mm 3,2 km/h (1 Bft) W 270 10 min 4 UV-I 803 W/m 11,3 km/h (2 Bft)
23.05.2010 16:30 22,6 C 64 % 1019,9 hPa 0,0 mm 3,2 km/h (1 Bft) W-SW 247 10 min 4 UV-I 860 W/m 11,3 km/h (2 Bft)
23.05.2010 16:40 22,6 C 62 % 1019,7 hPa 0,0 mm 4,8 km/h (1 Bft) W-SW 247 10 min 4 UV-I 752 W/m 16,1 km/h (3 Bft)
23.05.2010 16:50 22,1 C 64 % 1019,6 hPa 0,0 mm 4,8 km/h (1 Bft) W-SW 247 10 min 3 UV-I 350 W/m 14,5 km/h (3 Bft)
23.05.2010 17:00 21,9 C 64 % 1019,5 hPa 0,0 mm 3,2 km/h (1 Bft) W 270 0 min 3 UV-I 281 W/m 9,7 km/h (2 Bft)
23.05.2010 17:10 22,1 C 63 % 1019,3 hPa 0,0 mm 4,8 km/h (1 Bft) W-SW 247 10 min 3 UV-I 680 W/m 14,5 km/h (3 Bft)
23.05.2010 17:20 22,7 C 61 % 1019,2 hPa 0,0 mm 3,2 km/h (1 Bft) W 270 10 min 3 UV-I 698 W/m 12,9 km/h (3 Bft)
23.05.2010 17:30 23,1 C 59 % 1019,0 hPa 0,0 mm 4,8 km/h (1 Bft) W 270 10 min 3 UV-I 622 W/m 16,1 km/h (3 Bft)
23.05.2010 17:40 23,2 C 57 % 1018,9 hPa 0,0 mm 6,4 km/h (2 Bft) W 270 10 min 2 UV-I 619 W/m 14,5 km/h (3 Bft)
23.05.2010 17:50 23,2 C 58 % 1018,9 hPa 0,0 mm 3,2 km/h (1 Bft) W-SW 247 10 min 2 UV-I 550 W/m 11,3 km/h (2 Bft)
23.05.2010 18:00 23,1 C 58 % 1018,8 hPa 0,0 mm 6,4 km/h (2 Bft) W 270 10 min 2 UV-I 490 W/m 17,7 km/h (3 Bft)
23.05.2010 18:10 22,6 C 59 % 1018,8 hPa 0,0 mm 3,2 km/h (1 Bft) W 270 10 min 2 UV-I 417 W/m 9,7 km/h (2 Bft)
23.05.2010 18:20 23,0 C 57 % 1018,7 hPa 0,0 mm 1,6 km/h (1 Bft) W-SW 247 10 min 2 UV-I 501 W/m 8,0 km/h (2 Bft)
23.05.2010 18:30 23,4 C 56 % 1018,5 hPa 0,0 mm 4,8 km/h (1 Bft) W-NW 292 10 min 1 UV-I 446 W/m 14,5 km/h (3 Bft)
23.05.2010 18:40 23,2 C 56 % 1018,4 hPa 0,0 mm 6,4 km/h (2 Bft) W-SW 247 10 min 1 UV-I 427 W/m 14,5 km/h (3 Bft)
23.05.2010 18:50 22,6 C 59 % 1018,4 hPa 0,0 mm 3,2 km/h (1 Bft) W-SW 247 0 min 1 UV-I 109 W/m 19,3 km/h (3 Bft)
23.05.2010 19:00 22,0 C 60 % 1018,4 hPa 0,0 mm 1,6 km/h (1 Bft) W 270 0 min 1 UV-I 76 W/m 6,4 km/h (2 Bft)
23.05.2010 19:10 21,8 C 61 % 1018,2 hPa 0,0 mm 3,2 km/h (1 Bft) W 270 0 min 1 UV-I 90 W/m 11,3 km/h (2 Bft)
23.05.2010 19:20 21,8 C 60 % 1018,0 hPa 0,0 mm 3,2 km/h (1 Bft) W 270 10 min 1 UV-I 318 W/m 9,7 km/h (2 Bft)
23.05.2010 19:30 22,5 C 58 % 1017,9 hPa 0,0 mm 3,2 km/h (1 Bft) W 270 10 min 1 UV-I 301 W/m 11,3 km/h (2 Bft)
23.05.2010 19:40 22,6 C 58 % 1017,9 hPa 0,0 mm 4,8 km/h (1 Bft) W 270 10 min 1 UV-I 206 W/m 16,1 km/h (3 Bft)
23.05.2010 19:50 22,2 C 59 % 1017,8 hPa 0,0 mm 3,2 km/h (1 Bft) W 270 10 min 1 UV-I 185 W/m 11,3 km/h (2 Bft)
23.05.2010 20:00 21,8 C 60 % 1017,7 hPa 0,0 mm 3,2 km/h (1 Bft) W 270 10 min 1 UV-I 151 W/m 9,7 km/h (2 Bft)
23.05.2010 20:10 21,6 C 60 % 1017,6 hPa 0,0 mm 3,2 km/h (1 Bft) W-SW 247 10 min 0 UV-I 135 W/m 8,0 km/h (2 Bft)
23.05.2010 20:20 21,4 C 61 % 1017,5 hPa 0,0 mm 1,6 km/h (1 Bft) W 270 0 min 0 UV-I 44 W/m 8,0 km/h (2 Bft)
23.05.2010 20:30 21,2 C 61 % 1017,4 hPa 0,0 mm 3,2 km/h (1 Bft) W 270 0 min 0 UV-I 37 W/m 12,9 km/h (3 Bft)
23.05.2010 20:40 21,1 C 62 % 1017,4 hPa 0,0 mm 3,2 km/h (1 Bft) W 270 0 min 0 UV-I 33 W/m 11,3 km/h (2 Bft)
23.05.2010 20:50 20,8 C 63 % 1017,4 hPa 0,0 mm 3,2 km/h (1 Bft) W-SW 247 0 min 0 UV-I 26 W/m 6,4 km/h (2 Bft)
23.05.2010 21:00 20,6 C 64 % 1017,4 hPa 0,0 mm 1,6 km/h (1 Bft) W 270 0 min 0 UV-I 19 W/m 8,0 km/h (2 Bft)
23.05.2010 21:10 20,3 C 65 % 1017,4 hPa 0,0 mm 1,6 km/h (1 Bft) W-SW 247 0 min 0 UV-I 11 W/m 6,4 km/h (2 Bft)
23.05.2010 21:20 19,9 C 67 % 1017,4 hPa 0,0 mm 0,0 km/h (0 Bft) W-SW 247 0 min 0 UV-I 5 W/m 3,2 km/h (1 Bft)
23.05.2010 21:30 19,5 C 68 % 1017,3 hPa 0,0 mm 0,0 km/h (0 Bft) W-SW 247 0 min 0 UV-I 0 W/m 1,6 km/h (1 Bft)
23.05.2010 21:40 19,1 C 69 % 1017,4 hPa 0,0 mm 0,0 km/h (0 Bft) W-SW 247 0 min 0 UV-I 0 W/m 3,2 km/h (1 Bft)
23.05.2010 21:50 18,9 C 70 % 1017,3 hPa 0,0 mm 0,0 km/h (0 Bft) W-SW 247 0 min 0 UV-I 0 W/m 1,6 km/h (1 Bft)
23.05.2010 22:00 18,8 C 71 % 1017,3 hPa 0,0 mm 0,0 km/h (0 Bft) W-SW 247 0 min 0 UV-I 0 W/m 1,6 km/h (1 Bft)
23.05.2010 22:10 18,8 C 71 % 1017,3 hPa 0,0 mm 0,0 km/h (0 Bft) W-SW 247 0 min 0 UV-I 0 W/m 4,8 km/h (1 Bft)
23.05.2010 22:20 18,8 C 72 % 1017,3 hPa 0,0 mm 0,0 km/h (0 Bft) W-SW 247 0 min 0 UV-I 0 W/m 1,6 km/h (1 Bft)
23.05.2010 22:30 18,7 C 73 % 1017,2 hPa 0,0 mm 0,0 km/h (0 Bft) W 270 0 min 0 UV-I 0 W/m 6,4 km/h (2 Bft)
23.05.2010 22:40 18,4 C 74 % 1017,2 hPa 0,0 mm 0,0 km/h (0 Bft) W 270 0 min 0 UV-I 0 W/m 3,2 km/h (1 Bft)
23.05.2010 22:50 18,2 C 75 % 1017,1 hPa 0,0 mm 0,0 km/h (0 Bft) W-SW 247 0 min 0 UV-I 0 W/m 6,4 km/h (2 Bft)
23.05.2010 23:00 18,0 C 75 % 1017,0 hPa 0,0 mm 0,0 km/h (0 Bft) W-SW 247 0 min 0 UV-I 0 W/m 3,2 km/h (1 Bft)
23.05.2010 23:10 17,7 C 76 % 1016,9 hPa 0,0 mm 0,0 km/h (0 Bft) W-SW 247 0 min 0 UV-I 0 W/m 1,6 km/h (1 Bft)
23.05.2010 23:20 17,4 C 77 % 1016,9 hPa 0,0 mm 0,0 km/h (0 Bft) W-SW 247 0 min 0 UV-I 0 W/m 1,6 km/h (1 Bft)
23.05.2010 23:30 17,2 C 78 % 1016,8 hPa 0,0 mm 0,0 km/h (0 Bft) W-SW 247 0 min 0 UV-I 0 W/m 1,6 km/h (1 Bft)
23.05.2010 23:40 16,9 C 79 % 1016,8 hPa 0,0 mm 0,0 km/h (0 Bft) W-SW 247 0 min 0 UV-I 0 W/m 1,6 km/h (1 Bft)
23.05.2010 23:50 16,6 C 79 % 1016,7 hPa 0,0 mm 0,0 km/h (0 Bft) W-SW 247 0 min 0 UV-I 0 W/m 1,6 km/h (1 Bft)
_ Min-Zeit 09:10 18:30 23:50 - 00:00 - - - - - 00:30
Minimum _ 9,3 C 56 % 1016,7 hPa - 0,0 km/h (0 Bft) - - - - - 0,0 km/h (0 Bft)
_ Max-Zeit 18:20 09:10 09:50 00:00 17:40 - - 11:50 12:30 12:30 18:50
Maximum _ 23,7 C 94 % 1023,3 hPa 0,0 mm 6,4 km/h
W (2 Bft)
- - 10 min 8 UV-I 1056 W/m 19,3 km/h
W (3 Bft)
Durchschnitt _ 15,4 C 79 % 1021,0 hPa #0,0 mm 1,5 km/h (1 Bft) W - #7:50 h 4 UV-I 405 W/m 6,2 km/h (2 Bft)